createdAt,value
2024-01-20T00:00:18.622Z,-2.50
2024-01-20T00:02:46.636Z,-2.50
2024-01-20T00:05:14.753Z,-2.40
2024-01-20T00:07:45.641Z,-2.20
2024-01-20T00:10:14.572Z,-2.00
2024-01-20T00:12:44.796Z,-2.00
2024-01-20T00:15:15.454Z,-2.20
2024-01-20T00:17:44.221Z,-2.40
2024-01-20T00:20:13.443Z,-2.50
2024-01-20T00:22:42.312Z,-2.60
2024-01-20T00:25:11.455Z,-3.00
2024-01-20T00:27:39.727Z,-3.40
2024-01-20T00:30:09.010Z,-3.30
2024-01-20T00:32:38.678Z,-4.00
2024-01-20T00:35:08.589Z,-4.90
2024-01-20T00:37:38.853Z,-5.10
2024-01-20T00:40:08.349Z,-5.10
2024-01-20T00:42:37.219Z,-4.90
2024-01-20T00:45:05.784Z,-4.30
2024-01-20T00:47:35.985Z,-4.00
2024-01-20T00:50:08.745Z,-3.70
2024-01-20T00:52:36.880Z,-3.90
2024-01-20T00:55:05.821Z,-3.90
2024-01-20T00:57:33.810Z,-4.20
2024-01-20T01:00:02.370Z,-4.20
2024-01-20T01:02:31.211Z,-4.30
2024-01-20T01:04:59.330Z,-4.30
2024-01-20T01:07:28.818Z,-4.00
2024-01-20T01:09:56.803Z,-4.10
2024-01-20T01:12:28.158Z,-3.90
2024-01-20T01:14:56.941Z,-3.80
2024-01-20T01:17:24.991Z,-3.70
2024-01-20T01:19:53.116Z,-3.70
2024-01-20T01:22:21.608Z,-3.80
2024-01-20T01:24:51.122Z,-4.10
2024-01-20T01:27:19.726Z,-4.10
2024-01-20T01:29:47.832Z,-3.60
2024-01-20T01:32:16.060Z,-3.40
2024-01-20T01:34:44.163Z,-3.50
2024-01-20T01:37:12.297Z,-3.80
2024-01-20T01:39:40.618Z,-3.90
2024-01-20T01:42:09.968Z,-4.10
2024-01-20T01:44:38.318Z,-4.70
2024-01-20T01:47:06.600Z,-5.00
2024-01-20T01:49:35.129Z,-5.10
2024-01-20T01:52:03.860Z,-5.10
2024-01-20T01:54:34.371Z,-5.10
2024-01-20T01:57:11.600Z,-4.70
2024-01-20T01:59:40.951Z,-4.80
2024-01-20T02:02:09.191Z,-4.50
2024-01-20T02:04:37.388Z,-4.00
2024-01-20T02:07:08.814Z,-3.70
2024-01-20T02:09:37.436Z,-3.50
2024-01-20T02:12:06.603Z,-3.40
2024-01-20T02:14:37.583Z,-3.40
2024-01-20T02:17:07.316Z,-3.90
2024-01-20T02:19:39.983Z,-3.90
2024-01-20T02:22:13.430Z,-4.70
2024-01-20T02:24:42.547Z,-5.40
2024-01-20T02:27:11.005Z,-5.70
2024-01-20T02:29:40.504Z,-6.00
2024-01-20T02:32:09.038Z,-5.90
2024-01-20T02:34:38.163Z,-5.80
2024-01-20T02:37:08.290Z,-5.70
2024-01-20T02:39:38.511Z,-5.40
2024-01-20T02:42:09.683Z,-4.90
2024-01-20T02:44:39.833Z,-4.40
2024-01-20T02:47:08.145Z,-4.60
2024-01-20T02:49:37.140Z,-5.10
2024-01-20T02:52:06.331Z,-4.70
2024-01-20T02:54:34.720Z,-4.50
2024-01-20T02:57:04.341Z,-4.20
2024-01-20T02:59:32.797Z,-4.10
2024-01-20T03:02:03.099Z,-4.00
2024-01-20T03:04:32.067Z,-4.30
2024-01-20T03:07:00.182Z,-5.00
2024-01-20T03:09:29.639Z,-4.90
2024-01-20T03:11:57.799Z,-4.80
2024-01-20T03:14:27.459Z,-4.70
2024-01-20T03:16:55.565Z,-4.40
2024-01-20T03:19:23.708Z,-4.10
2024-01-20T03:21:51.702Z,-4.60
2024-01-20T03:24:21.448Z,-4.80
2024-01-20T03:26:50.330Z,-5.00
2024-01-20T03:29:18.794Z,-5.50
2024-01-20T03:31:48.273Z,-5.30
2024-01-20T03:34:16.877Z,-5.00
2024-01-20T03:36:47.198Z,-5.00
2024-01-20T03:39:15.285Z,-4.90
2024-01-20T03:41:43.381Z,-4.70
2024-01-20T03:44:11.446Z,-4.40
2024-01-20T03:46:39.478Z,-4.40
2024-01-20T03:49:09.044Z,-5.30
2024-01-20T03:51:37.219Z,-5.80
2024-01-20T03:54:05.553Z,-5.80
2024-01-20T03:56:34.813Z,-5.30
2024-01-20T03:59:02.829Z,-5.00
2024-01-20T04:01:33.268Z,-4.90
2024-01-20T04:04:02.764Z,-4.60
2024-01-20T04:06:32.686Z,-4.50
2024-01-20T04:09:01.961Z,-4.70
2024-01-20T04:11:32.150Z,-5.50
2024-01-20T04:14:00.511Z,-6.00
2024-01-20T04:16:28.516Z,-5.90
2024-01-20T04:18:56.690Z,-6.00
2024-01-20T04:21:25.064Z,-6.20
2024-01-20T04:23:54.834Z,-6.00
2024-01-20T04:26:23.732Z,-5.90
2024-01-20T04:28:53.817Z,-5.70
2024-01-20T04:31:21.834Z,-5.50
2024-01-20T04:33:50.273Z,-5.50
2024-01-20T04:36:19.413Z,-5.40
2024-01-20T04:38:47.652Z,-5.00
2024-01-20T04:41:17.122Z,-4.60
2024-01-20T04:43:45.204Z,-4.20
2024-01-20T04:46:13.522Z,-4.40
2024-01-20T04:48:41.979Z,-4.10
2024-01-20T04:51:10.650Z,-4.60
2024-01-20T04:53:38.673Z,-5.60
2024-01-20T04:56:07.293Z,-5.80
2024-01-20T04:58:39.772Z,-5.90
2024-01-20T05:01:07.779Z,-5.60
2024-01-20T05:03:35.943Z,-5.30
2024-01-20T05:06:04.145Z,-5.30
2024-01-20T05:08:32.234Z,-5.10
2024-01-20T05:11:01.650Z,-4.80
2024-01-20T05:13:30.082Z,-4.70
2024-01-20T05:15:59.442Z,-4.70
2024-01-20T05:18:28.341Z,-4.40
2024-01-20T05:20:56.480Z,-4.50
2024-01-20T05:23:25.123Z,-5.00
2024-01-20T05:25:53.244Z,-5.10
2024-01-20T05:28:21.253Z,-5.30
2024-01-20T05:30:49.664Z,-5.40
2024-01-20T05:33:19.119Z,-5.80
2024-01-20T05:35:47.525Z,-6.10
2024-01-20T05:38:15.541Z,-6.40
2024-01-20T05:40:43.659Z,-6.80
2024-01-20T05:43:12.602Z,-6.60
2024-01-20T05:45:40.671Z,-6.70
2024-01-20T05:48:08.859Z,-7.00
2024-01-20T05:50:38.426Z,-7.20
2024-01-20T05:53:06.514Z,-7.20
2024-01-20T05:55:35.323Z,-6.70
2024-01-20T05:58:03.637Z,-6.10
2024-01-20T06:00:32.777Z,-5.80
2024-01-20T06:03:00.101Z,-5.50
2024-01-20T06:05:29.755Z,-5.40
2024-01-20T06:07:59.191Z,-5.30
2024-01-20T06:10:28.186Z,-5.20
2024-01-20T06:12:56.232Z,-5.20
2024-01-20T06:15:27.019Z,-6.00
2024-01-20T06:17:55.509Z,-6.80
2024-01-20T06:20:23.840Z,-6.90
2024-01-20T06:22:51.834Z,-6.80
2024-01-20T06:25:21.185Z,-6.40
2024-01-20T06:27:51.347Z,-6.00
2024-01-20T06:30:20.247Z,-5.80
2024-01-20T06:32:48.393Z,-5.80
2024-01-20T06:35:16.909Z,-5.70
2024-01-20T06:37:44.950Z,-5.50
2024-01-20T06:40:16.232Z,-6.10
2024-01-20T06:42:45.662Z,-6.80
2024-01-20T06:45:14.954Z,-7.20
2024-01-20T06:47:45.025Z,-7.40
2024-01-20T06:50:16.270Z,-7.20
2024-01-20T06:52:44.297Z,-6.90
2024-01-20T06:55:13.629Z,-6.40
2024-01-20T06:57:41.715Z,-6.20
2024-01-20T07:00:12.973Z,-6.00
2024-01-20T07:02:41.034Z,-5.70
2024-01-20T07:05:10.751Z,-5.70
2024-01-20T07:07:40.944Z,-5.60
2024-01-20T07:10:10.116Z,-5.40
2024-01-20T07:12:38.697Z,-5.60
2024-01-20T07:15:07.906Z,-6.00
2024-01-20T07:17:38.886Z,-5.60
2024-01-20T07:20:08.971Z,-5.50
2024-01-20T07:22:37.066Z,-6.00
2024-01-20T07:25:06.836Z,-5.80
2024-01-20T07:27:37.120Z,-5.50
2024-01-20T07:30:06.487Z,-5.40
2024-01-20T07:32:34.558Z,-6.20
2024-01-20T07:35:05.962Z,-6.70
2024-01-20T07:37:37.213Z,-6.90
2024-01-20T07:40:06.736Z,-6.40
2024-01-20T07:42:36.393Z,-5.90
2024-01-20T07:45:05.745Z,-6.10
2024-01-20T07:47:34.457Z,-6.60
2024-01-20T07:50:03.007Z,-6.90
2024-01-20T07:52:32.978Z,-7.00
2024-01-20T07:55:01.953Z,-6.90
2024-01-20T07:57:31.813Z,-6.70
2024-01-20T08:00:00.301Z,-6.20
2024-01-20T08:02:28.505Z,-6.00
2024-01-20T08:04:57.077Z,-5.70
2024-01-20T08:07:25.228Z,-5.60
2024-01-20T08:09:55.094Z,-5.30
2024-01-20T08:12:24.479Z,-5.20
2024-01-20T08:14:53.250Z,-5.20
2024-01-20T08:17:21.878Z,-5.30
2024-01-20T08:19:52.258Z,-5.40
2024-01-20T08:22:21.659Z,-5.70
2024-01-20T08:24:51.293Z,-5.80
2024-01-20T08:27:20.889Z,-6.00
2024-01-20T08:29:48.905Z,-6.10
2024-01-20T08:32:17.425Z,-5.80
2024-01-20T08:34:46.827Z,-6.00
2024-01-20T08:37:16.167Z,-6.00
2024-01-20T08:39:44.383Z,-5.80
2024-01-20T08:42:12.636Z,-5.60
2024-01-20T08:44:42.344Z,-5.60
2024-01-20T08:47:11.620Z,-5.30
2024-01-20T08:49:41.054Z,-4.80
2024-01-20T08:52:12.610Z,-4.50
2024-01-20T08:54:41.675Z,-4.10
2024-01-20T08:57:09.845Z,-4.00
2024-01-20T08:59:44.356Z,-3.60
2024-01-20T09:02:12.979Z,-3.50
2024-01-20T09:04:41.511Z,-3.40
2024-01-20T09:07:09.571Z,-3.20
2024-01-20T09:09:37.737Z,-2.90
2024-01-20T09:12:06.467Z,-2.80
2024-01-20T09:14:35.847Z,-2.50
2024-01-20T09:17:06.263Z,-2.10
2024-01-20T09:19:34.534Z,-2.00
2024-01-20T09:22:02.872Z,-1.50
2024-01-20T09:24:31.795Z,-1.30
2024-01-20T09:27:01.510Z,-1.30
2024-01-20T09:29:30.027Z,-1.60
2024-01-20T09:31:59.112Z,-1.50
2024-01-20T09:34:30.206Z,-1.50
2024-01-20T09:36:58.402Z,-1.20
2024-01-20T09:39:27.169Z,-0.70
2024-01-20T09:41:55.764Z,-0.60
2024-01-20T09:44:24.422Z,-0.50
2024-01-20T09:46:53.123Z,-0.50
2024-01-20T09:49:21.526Z,-0.50
2024-01-20T09:51:53.149Z,-0.40
2024-01-20T09:54:23.003Z,-0.50
2024-01-20T09:56:53.120Z,-0.60
2024-01-20T09:59:23.161Z,-0.40
2024-01-20T10:01:53.286Z,-0.40
2024-01-20T10:04:23.713Z,-0.20
2024-01-20T10:06:55.255Z,-0.40
2024-01-20T10:09:24.040Z,-0.40
2024-01-20T10:11:52.191Z,-0.40
2024-01-20T10:14:20.482Z,-0.40
2024-01-20T10:16:48.475Z,-0.30
2024-01-20T10:19:17.053Z,0.00
2024-01-20T10:21:45.166Z,0.20
2024-01-20T10:24:21.074Z,0.30
2024-01-20T10:26:50.116Z,0.40
2024-01-20T10:29:18.918Z,0.50
2024-01-20T10:31:47.394Z,0.50
2024-01-20T10:34:16.162Z,0.80
2024-01-20T10:36:47.090Z,0.80
2024-01-20T10:39:21.165Z,0.90
2024-01-20T10:41:50.156Z,1.10
2024-01-20T10:44:23.083Z,1.20
2024-01-20T10:46:55.622Z,1.30
2024-01-20T10:49:24.849Z,1.50
2024-01-20T10:51:54.878Z,1.70
2024-01-20T10:54:25.027Z,1.70
2024-01-20T10:56:53.344Z,1.60
2024-01-20T10:59:26.266Z,1.70
2024-01-20T11:01:55.454Z,1.80
2024-01-20T11:04:23.814Z,2.00
2024-01-20T11:06:52.642Z,2.00
2024-01-20T11:09:22.857Z,2.10
2024-01-20T11:12:02.397Z,2.00
2024-01-20T11:14:33.212Z,1.90
2024-01-20T11:17:11.339Z,1.90
2024-01-20T11:19:40.433Z,2.00
2024-01-20T11:22:30.986Z,1.80
2024-01-20T11:24:59.021Z,1.90
2024-01-20T11:27:28.723Z,1.90
2024-01-20T11:30:06.228Z,1.90
2024-01-20T11:32:35.725Z,1.90
2024-01-20T11:35:07.963Z,2.00
2024-01-20T11:37:37.336Z,2.20
2024-01-20T11:40:09.485Z,2.30
2024-01-20T11:42:39.579Z,2.30
2024-01-20T11:45:08.771Z,2.40
2024-01-20T11:47:37.206Z,2.40
2024-01-20T11:50:06.482Z,2.60
2024-01-20T11:52:37.037Z,2.80
2024-01-20T11:55:05.774Z,2.80
2024-01-20T11:57:33.823Z,2.90
2024-01-20T12:00:04.682Z,3.10
2024-01-20T12:02:33.571Z,3.00
2024-01-20T12:05:07.894Z,3.20
2024-01-20T12:07:38.729Z,3.20
2024-01-20T12:10:07.162Z,3.30
2024-01-20T12:12:35.496Z,3.40
2024-01-20T12:15:08.230Z,3.50
2024-01-20T12:17:37.330Z,3.60
2024-01-20T12:20:06.896Z,3.70
2024-01-20T12:22:38.384Z,3.80
2024-01-20T12:25:08.170Z,3.80
2024-01-20T12:27:36.477Z,3.90
2024-01-20T12:30:06.735Z,4.00
2024-01-20T12:32:36.108Z,4.10
2024-01-20T12:35:05.885Z,4.10
2024-01-20T12:37:34.584Z,4.30
2024-01-20T12:40:06.830Z,4.40
2024-01-20T12:42:38.563Z,4.60
2024-01-20T12:45:10.107Z,4.70
2024-01-20T12:47:38.492Z,4.90
2024-01-20T12:50:08.195Z,4.90
2024-01-20T12:52:36.895Z,4.90
2024-01-20T12:55:06.684Z,4.80
2024-01-20T12:57:35.129Z,5.00
2024-01-20T13:00:04.060Z,5.20
2024-01-20T13:02:33.700Z,5.20
2024-01-20T13:05:03.082Z,5.20
2024-01-20T13:07:32.146Z,5.20
2024-01-20T13:10:00.189Z,5.10
2024-01-20T13:12:29.718Z,5.10
2024-01-20T13:14:57.893Z,5.00
2024-01-20T13:17:26.691Z,5.00
2024-01-20T13:19:57.321Z,5.00
2024-01-20T13:22:25.731Z,4.90
2024-01-20T13:24:58.052Z,4.90
2024-01-20T13:27:26.641Z,4.90
2024-01-20T13:29:54.747Z,4.90
2024-01-20T13:32:22.880Z,4.90
2024-01-20T13:34:51.277Z,5.00
2024-01-20T13:37:23.001Z,5.00
2024-01-20T13:39:53.811Z,5.00
2024-01-20T13:42:22.253Z,5.10
2024-01-20T13:44:50.312Z,5.10
2024-01-20T13:47:19.587Z,5.20
2024-01-20T13:49:47.774Z,5.20
2024-01-20T13:52:16.011Z,5.20
2024-01-20T13:54:45.489Z,5.30
2024-01-20T13:57:15.186Z,5.40
2024-01-20T13:59:43.247Z,5.30
2024-01-20T14:02:17.363Z,5.40
2024-01-20T14:04:46.832Z,5.30
2024-01-20T14:07:16.392Z,5.20
2024-01-20T14:09:45.985Z,5.20
2024-01-20T14:12:14.378Z,5.20
2024-01-20T14:14:42.531Z,5.20
2024-01-20T14:17:11.237Z,5.20
2024-01-20T14:19:40.744Z,5.20
2024-01-20T14:22:09.106Z,5.10
2024-01-20T14:24:37.703Z,5.20
2024-01-20T14:27:07.692Z,5.20
2024-01-20T14:29:36.475Z,5.20
2024-01-20T14:32:04.964Z,5.20
2024-01-20T14:34:34.426Z,5.20
2024-01-20T14:37:05.188Z,5.30
2024-01-20T14:39:34.067Z,5.30
2024-01-20T14:42:02.700Z,5.40
2024-01-20T14:44:32.188Z,5.50
2024-01-20T14:47:00.320Z,5.50
2024-01-20T14:49:28.877Z,5.60
2024-01-20T14:51:57.375Z,5.60
2024-01-20T14:54:26.641Z,5.60
2024-01-20T14:56:54.843Z,5.50
2024-01-20T14:59:25.439Z,5.60
2024-01-20T15:01:55.157Z,5.70
2024-01-20T15:04:23.916Z,5.80
2024-01-20T15:06:52.452Z,5.60
2024-01-20T15:09:20.977Z,5.70
2024-01-20T15:11:49.167Z,5.70
2024-01-20T15:14:17.458Z,5.60
2024-01-20T15:16:45.520Z,5.50
2024-01-20T15:19:15.304Z,5.40
2024-01-20T15:21:43.487Z,5.30
2024-01-20T15:24:11.984Z,5.20
2024-01-20T15:26:41.140Z,5.30
2024-01-20T15:29:11.473Z,5.40
2024-01-20T15:31:39.614Z,5.40
2024-01-20T15:34:07.897Z,5.30
2024-01-20T15:36:37.428Z,5.20
2024-01-20T15:39:06.156Z,5.30
2024-01-20T15:41:34.336Z,5.40
2024-01-20T15:44:02.454Z,5.10
2024-01-20T15:46:31.123Z,4.40
2024-01-20T15:48:59.375Z,4.20
2024-01-20T15:51:27.521Z,4.00
2024-01-20T15:53:57.242Z,3.90
2024-01-20T15:56:26.532Z,3.80
2024-01-20T15:58:54.871Z,3.70
2024-01-20T16:01:24.172Z,3.60
2024-01-20T16:03:53.354Z,3.60
2024-01-20T16:06:21.516Z,3.60
2024-01-20T16:08:50.162Z,3.40
2024-01-20T16:11:19.573Z,3.00
2024-01-20T16:13:48.801Z,2.80
2024-01-20T16:16:16.933Z,2.60
2024-01-20T16:18:45.935Z,2.70
2024-01-20T16:21:21.756Z,2.50
2024-01-20T16:23:50.132Z,2.20
2024-01-20T16:26:21.414Z,2.10
2024-01-20T16:28:50.103Z,2.10
2024-01-20T16:31:18.611Z,2.20
2024-01-20T16:33:47.891Z,2.50
2024-01-20T16:36:19.592Z,2.50
2024-01-20T16:38:47.741Z,2.60
2024-01-20T16:41:16.319Z,2.50
2024-01-20T16:43:45.983Z,2.50
2024-01-20T16:46:14.350Z,2.60
2024-01-20T16:48:42.575Z,2.60
2024-01-20T16:51:15.448Z,2.60
2024-01-20T16:53:51.737Z,2.70
2024-01-20T16:56:22.051Z,2.70
2024-01-20T16:58:51.540Z,2.70
2024-01-20T17:01:19.828Z,2.80
2024-01-20T17:03:47.981Z,2.90
2024-01-20T17:06:19.504Z,2.70
2024-01-20T17:08:47.962Z,2.70
2024-01-20T17:11:16.263Z,2.40
2024-01-20T17:13:44.966Z,2.50
2024-01-20T17:16:14.973Z,2.50
2024-01-20T17:18:43.592Z,2.40
2024-01-20T17:21:16.503Z,2.30
2024-01-20T17:23:46.232Z,2.20
2024-01-20T17:26:14.612Z,2.30
2024-01-20T17:28:44.011Z,2.30
2024-01-20T17:31:13.172Z,2.50
2024-01-20T17:33:43.103Z,2.50
2024-01-20T17:36:12.428Z,2.80
2024-01-20T17:38:41.619Z,2.80
2024-01-20T17:41:09.652Z,2.50
2024-01-20T17:43:38.285Z,2.30
2024-01-20T17:46:07.855Z,2.20
2024-01-20T17:48:36.992Z,2.10
2024-01-20T17:51:09.206Z,2.10
2024-01-20T17:53:37.309Z,2.10
2024-01-20T17:56:06.484Z,1.90
2024-01-20T17:58:36.786Z,1.80
2024-01-20T18:01:06.170Z,1.90
2024-01-20T18:03:37.779Z,1.80
2024-01-20T18:06:06.552Z,1.70
2024-01-20T18:08:37.796Z,1.50
2024-01-20T18:11:06.920Z,1.50
2024-01-20T18:13:35.004Z,1.50
2024-01-20T18:16:03.145Z,1.40
2024-01-20T18:18:31.314Z,1.50
2024-01-20T18:20:59.705Z,1.70
2024-01-20T18:23:28.770Z,1.60
2024-01-20T18:25:58.288Z,1.50
2024-01-20T18:28:27.767Z,1.40
2024-01-20T18:30:56.514Z,1.50
2024-01-20T18:33:25.920Z,1.40
2024-01-20T18:35:55.464Z,1.50
2024-01-20T18:38:23.851Z,1.40
2024-01-20T18:40:51.912Z,1.40
2024-01-20T18:43:21.821Z,1.30
2024-01-20T18:45:51.092Z,1.50
2024-01-20T18:48:19.438Z,1.20
2024-01-20T18:50:47.989Z,1.60
2024-01-20T18:53:16.668Z,1.50
2024-01-20T18:55:45.441Z,1.40
2024-01-20T18:58:13.998Z,1.20
2024-01-20T19:00:43.782Z,1.10
2024-01-20T19:03:13.019Z,0.90
2024-01-20T19:05:43.224Z,0.90
2024-01-20T19:08:11.639Z,0.80
2024-01-20T19:10:44.180Z,0.50
2024-01-20T19:13:12.233Z,0.40
2024-01-20T19:15:43.066Z,0.40
2024-01-20T19:18:13.087Z,0.50
2024-01-20T19:20:42.293Z,0.70
2024-01-20T19:23:11.647Z,0.70
2024-01-20T19:25:39.726Z,0.90
2024-01-20T19:28:07.753Z,1.00
2024-01-20T19:30:37.533Z,0.90
2024-01-20T19:33:08.798Z,1.10
2024-01-20T19:35:37.112Z,1.30
2024-01-20T19:38:05.833Z,1.20
2024-01-20T19:40:36.830Z,1.00
2024-01-20T19:43:05.301Z,1.10
2024-01-20T19:45:35.061Z,1.10
2024-01-20T19:48:05.050Z,1.30
2024-01-20T19:50:35.222Z,1.50
2024-01-20T19:53:03.312Z,1.40
2024-01-20T19:55:32.316Z,1.40
2024-01-20T19:58:00.863Z,1.20
2024-01-20T20:00:29.623Z,1.10
2024-01-20T20:03:00.649Z,0.80
2024-01-20T20:05:32.411Z,0.60
2024-01-20T20:08:02.911Z,0.50
2024-01-20T20:10:32.179Z,0.60
2024-01-20T20:13:00.500Z,0.60
2024-01-20T20:15:28.559Z,0.90
2024-01-20T20:17:57.111Z,0.80
2024-01-20T20:20:27.150Z,0.80
2024-01-20T20:22:55.245Z,1.00
2024-01-20T20:25:24.912Z,1.10
2024-01-20T20:27:54.751Z,1.00
2024-01-20T20:30:24.934Z,1.20
2024-01-20T20:32:54.713Z,1.20
2024-01-20T20:35:22.759Z,1.40
2024-01-20T20:37:52.569Z,1.20
2024-01-20T20:40:20.612Z,1.00
2024-01-20T20:42:50.010Z,1.10
2024-01-20T20:45:18.050Z,1.10
2024-01-20T20:47:47.573Z,1.00
2024-01-20T20:50:18.004Z,0.90
2024-01-20T20:52:46.804Z,0.90
2024-01-20T20:55:15.198Z,0.50
2024-01-20T20:57:44.118Z,0.50
2024-01-20T21:00:16.682Z,0.60
2024-01-20T21:02:46.264Z,0.50
2024-01-20T21:05:17.179Z,0.50
2024-01-20T21:07:45.582Z,0.00
2024-01-20T21:10:15.576Z,-0.10
2024-01-20T21:12:44.408Z,0.00
2024-01-20T21:15:14.796Z,-0.20
2024-01-20T21:17:43.464Z,-0.20
2024-01-20T21:20:13.754Z,-0.30
2024-01-20T21:22:42.992Z,0.10
2024-01-20T21:25:11.539Z,0.20
2024-01-20T21:27:41.740Z,0.40
2024-01-20T21:30:10.789Z,0.40
2024-01-20T21:32:40.568Z,0.20
2024-01-20T21:35:09.082Z,0.00
2024-01-20T21:37:39.600Z,-1.00
2024-01-20T21:40:09.177Z,-1.70
2024-01-20T21:42:37.250Z,-1.80
2024-01-20T21:45:07.397Z,-1.60
2024-01-20T21:47:36.872Z,-1.90
2024-01-20T21:50:09.070Z,-1.90
2024-01-20T21:52:39.606Z,-2.20
2024-01-20T21:55:09.809Z,-2.40
2024-01-20T21:57:37.900Z,-2.60
2024-01-20T22:00:09.213Z,-2.50
2024-01-20T22:02:43.904Z,-2.20
2024-01-20T22:05:14.029Z,-2.00
2024-01-20T22:07:43.076Z,-2.00
2024-01-20T22:10:12.222Z,-2.40
2024-01-20T22:12:40.934Z,-2.30
2024-01-20T22:15:10.152Z,-2.30
2024-01-20T22:17:39.024Z,-2.80
2024-01-20T22:20:09.464Z,-3.20
2024-01-20T22:22:39.399Z,-2.90
2024-01-20T22:25:07.518Z,-2.90
2024-01-20T22:27:38.707Z,-3.20
2024-01-20T22:30:10.144Z,-3.10
2024-01-20T22:32:40.325Z,-2.70
2024-01-20T22:35:09.967Z,-2.80
2024-01-20T22:37:41.566Z,-3.20
2024-01-20T22:40:11.395Z,-3.60
2024-01-20T22:42:40.695Z,-3.70
2024-01-20T22:45:11.089Z,-3.40
2024-01-20T22:47:40.397Z,-2.90
2024-01-20T22:50:09.210Z,-2.70
2024-01-20T22:52:37.551Z,-2.50
2024-01-20T22:55:07.741Z,-2.80
2024-01-20T22:57:39.812Z,-3.20
2024-01-20T23:00:13.905Z,-3.90
2024-01-20T23:02:42.293Z,-4.30
2024-01-20T23:05:11.252Z,-4.50
2024-01-20T23:07:39.645Z,-4.00
2024-01-20T23:10:10.175Z,-3.60
2024-01-20T23:12:39.918Z,-3.20
2024-01-20T23:15:10.376Z,-2.70
2024-01-20T23:17:39.825Z,-2.60
2024-01-20T23:20:11.308Z,-2.90
2024-01-20T23:22:39.679Z,-3.40
2024-01-20T23:25:11.253Z,-3.80
2024-01-20T23:27:39.688Z,-3.90
2024-01-20T23:30:08.921Z,-3.70
2024-01-20T23:32:37.177Z,-3.20
2024-01-20T23:35:06.291Z,-2.70
2024-01-20T23:37:36.566Z,-2.80
2024-01-20T23:40:06.076Z,-2.90
2024-01-20T23:42:38.352Z,-2.80
2024-01-20T23:45:07.423Z,-2.70
2024-01-20T23:47:38.543Z,-2.70
2024-01-20T23:50:07.698Z,-2.60
2024-01-20T23:52:36.468Z,-2.50
2024-01-20T23:55:04.940Z,-2.50
2024-01-20T23:57:33.745Z,-2.50
